sensor_id;sensor_type;location;lat;lon;timestamp;pressure;altitude;pressure_sealevel;temperature;humidity
12763;BME280;6445;52.490;13.378;2023-03-13T00:01:13;-12695.97;;;-146.10;100.00
12763;BME280;6445;52.490;13.378;2023-03-13T00:03:38;-12695.97;;;-146.10;100.00
12763;BME280;6445;52.490;13.378;2023-03-13T00:06:04;-12695.97;;;-146.10;100.00
12763;BME280;6445;52.490;13.378;2023-03-13T00:08:29;-12695.97;;;-146.10;100.00
12763;BME280;6445;52.490;13.378;2023-03-13T00:10:55;-12695.97;;;-146.10;100.00
12763;BME280;6445;52.490;13.378;2023-03-13T00:13:20;-12695.97;;;-146.10;100.00
12763;BME280;6445;52.490;13.378;2023-03-13T00:15:46;-12695.97;;;-146.10;100.00
12763;BME280;6445;52.490;13.378;2023-03-13T00:18:11;-12695.97;;;-146.10;100.00
12763;BME280;6445;52.490;13.378;2023-03-13T00:20:37;-12695.97;;;-146.10;100.00
12763;BME280;6445;52.490;13.378;2023-03-13T00:23:02;-12695.97;;;-146.10;100.00
12763;BME280;6445;52.490;13.378;2023-03-13T00:25:28;-12695.97;;;-146.10;100.00
12763;BME280;6445;52.490;13.378;2023-03-13T00:27:53;-12695.97;;;-146.10;100.00
12763;BME280;6445;52.490;13.378;2023-03-13T00:30:18;-12695.97;;;-146.10;100.00
12763;BME280;6445;52.490;13.378;2023-03-13T00:32:45;-12695.97;;;-146.10;100.00
12763;BME280;6445;52.490;13.378;2023-03-13T00:35:12;-12695.97;;;-146.10;100.00
12763;BME280;6445;52.490;13.378;2023-03-13T00:37:37;-12695.97;;;-146.10;100.00
12763;BME280;6445;52.490;13.378;2023-03-13T00:40:04;-12695.97;;;-146.10;100.00
12763;BME280;6445;52.490;13.378;2023-03-13T00:42:30;-12695.97;;;-146.10;100.00
12763;BME280;6445;52.490;13.378;2023-03-13T00:44:55;-12695.97;;;-146.10;100.00
12763;BME280;6445;52.490;13.378;2023-03-13T00:47:20;-12695.97;;;-146.10;100.00
12763;BME280;6445;52.490;13.378;2023-03-13T00:49:45;-12695.97;;;-146.10;100.00
12763;BME280;6445;52.490;13.378;2023-03-13T00:52:11;-12695.97;;;-146.10;100.00
12763;BME280;6445;52.490;13.378;2023-03-13T00:54:36;-12695.97;;;-146.10;100.00
12763;BME280;6445;52.490;13.378;2023-03-13T00:57:01;-12695.97;;;-146.10;100.00
12763;BME280;6445;52.490;13.378;2023-03-13T00:59:26;-12695.97;;;-146.10;100.00
12763;BME280;6445;52.490;13.378;2023-03-13T01:01:52;-12695.97;;;-146.10;100.00
12763;BME280;6445;52.490;13.378;2023-03-13T01:04:17;-12695.97;;;-146.10;100.00
12763;BME280;6445;52.490;13.378;2023-03-13T01:06:42;-12695.97;;;-146.10;100.00
12763;BME280;6445;52.490;13.378;2023-03-13T01:09:10;-12695.97;;;-146.10;100.00
12763;BME280;6445;52.490;13.378;2023-03-13T01:11:38;-12695.97;;;-146.10;100.00
12763;BME280;6445;52.490;13.378;2023-03-13T01:14:09;-12695.97;;;-146.10;100.00
12763;BME280;6445;52.490;13.378;2023-03-13T01:16:36;-12695.97;;;-146.10;100.00
12763;BME280;6445;52.490;13.378;2023-03-13T01:19:05;-12695.97;;;-146.10;100.00
12763;BME280;6445;52.490;13.378;2023-03-13T01:21:31;-12695.97;;;-146.10;100.00
12763;BME280;6445;52.490;13.378;2023-03-13T01:23:56;-12695.97;;;-146.10;100.00
12763;BME280;6445;52.490;13.378;2023-03-13T01:26:22;-12695.97;;;-146.10;100.00
12763;BME280;6445;52.490;13.378;2023-03-13T01:28:48;-12695.97;;;-146.10;100.00
12763;BME280;6445;52.490;13.378;2023-03-13T01:31:26;-12695.97;;;-146.10;100.00
12763;BME280;6445;52.490;13.378;2023-03-13T01:33:57;-12695.97;;;-146.10;100.00
12763;BME280;6445;52.490;13.378;2023-03-13T01:36:23;-12695.97;;;-146.10;100.00
12763;BME280;6445;52.490;13.378;2023-03-13T01:38:50;-12695.97;;;-146.10;100.00
12763;BME280;6445;52.490;13.378;2023-03-13T01:41:16;-12695.97;;;-146.10;100.00
12763;BME280;6445;52.490;13.378;2023-03-13T01:43:42;-12695.97;;;-146.10;100.00
12763;BME280;6445;52.490;13.378;2023-03-13T01:46:19;-12695.97;;;-146.10;100.00
12763;BME280;6445;52.490;13.378;2023-03-13T01:49:08;-12695.97;;;-146.10;100.00
12763;BME280;6445;52.490;13.378;2023-03-13T01:51:39;-12695.97;;;-146.10;100.00
12763;BME280;6445;52.490;13.378;2023-03-13T01:54:15;-12695.97;;;-146.10;100.00
12763;BME280;6445;52.490;13.378;2023-03-13T01:57:04;-12695.97;;;-146.10;100.00
12763;BME280;6445;52.490;13.378;2023-03-13T01:59:34;-12695.97;;;-146.10;100.00
12763;BME280;6445;52.490;13.378;2023-03-13T02:02:02;-12695.97;;;-146.10;100.00
12763;BME280;6445;52.490;13.378;2023-03-13T02:04:31;-12695.97;;;-146.10;100.00
12763;BME280;6445;52.490;13.378;2023-03-13T02:07:03;-12695.97;;;-146.10;100.00
12763;BME280;6445;52.490;13.378;2023-03-13T02:09:32;-12695.97;;;-146.10;100.00
12763;BME280;6445;52.490;13.378;2023-03-13T02:12:02;-12695.97;;;-146.10;100.00
12763;BME280;6445;52.490;13.378;2023-03-13T02:14:32;-12695.97;;;-146.10;100.00
12763;BME280;6445;52.490;13.378;2023-03-13T02:16:59;-12695.97;;;-146.10;100.00
12763;BME280;6445;52.490;13.378;2023-03-13T02:19:37;-12695.97;;;-146.10;100.00
12763;BME280;6445;52.490;13.378;2023-03-13T02:22:21;-12695.97;;;-146.10;100.00
12763;BME280;6445;52.490;13.378;2023-03-13T02:27:32;-12695.97;;;-146.10;100.00
12763;BME280;6445;52.490;13.378;2023-03-13T02:29:58;-12695.97;;;-146.10;100.00
12763;BME280;6445;52.490;13.378;2023-03-13T02:32:25;-12695.97;;;-146.10;100.00
12763;BME280;6445;52.490;13.378;2023-03-13T02:34:55;-12695.97;;;-146.10;100.00
12763;BME280;6445;52.490;13.378;2023-03-13T02:37:22;-12695.97;;;-146.10;100.00
12763;BME280;6445;52.490;13.378;2023-03-13T02:39:49;-12695.97;;;-146.10;100.00
12763;BME280;6445;52.490;13.378;2023-03-13T02:42:17;-12695.97;;;-146.10;100.00
12763;BME280;6445;52.490;13.378;2023-03-13T02:44:45;-12695.97;;;-146.10;100.00
12763;BME280;6445;52.490;13.378;2023-03-13T02:47:12;-12695.97;;;-146.10;100.00
12763;BME280;6445;52.490;13.378;2023-03-13T02:49:41;-12695.97;;;-146.10;100.00
12763;BME280;6445;52.490;13.378;2023-03-13T02:52:22;-12695.97;;;-146.10;100.00
12763;BME280;6445;52.490;13.378;2023-03-13T02:54:52;-12695.97;;;-146.10;100.00
12763;BME280;6445;52.490;13.378;2023-03-13T02:57:20;-12695.97;;;-146.10;100.00
12763;BME280;6445;52.490;13.378;2023-03-13T02:59:45;-12695.97;;;-146.10;100.00
12763;BME280;6445;52.490;13.378;2023-03-13T03:02:10;-12695.97;;;-146.10;100.00
12763;BME280;6445;52.490;13.378;2023-03-13T03:04:36;-12695.97;;;-146.10;100.00
12763;BME280;6445;52.490;13.378;2023-03-13T03:07:01;-12695.97;;;-146.10;100.00
12763;BME280;6445;52.490;13.378;2023-03-13T03:09:26;-12695.97;;;-146.10;100.00
12763;BME280;6445;52.490;13.378;2023-03-13T03:11:51;-12695.97;;;-146.10;100.00
12763;BME280;6445;52.490;13.378;2023-03-13T03:14:17;-12695.97;;;-146.10;100.00
12763;BME280;6445;52.490;13.378;2023-03-13T03:16:42;-12695.97;;;-146.10;100.00
12763;BME280;6445;52.490;13.378;2023-03-13T03:19:08;-12695.97;;;-146.10;100.00
12763;BME280;6445;52.490;13.378;2023-03-13T03:21:33;-12695.97;;;-146.10;100.00
12763;BME280;6445;52.490;13.378;2023-03-13T03:23:59;-12695.97;;;-146.10;100.00
12763;BME280;6445;52.490;13.378;2023-03-13T03:26:25;-12695.97;;;-146.10;100.00
12763;BME280;6445;52.490;13.378;2023-03-13T03:28:53;-12695.97;;;-146.10;100.00
12763;BME280;6445;52.490;13.378;2023-03-13T03:31:18;-12695.97;;;-146.10;100.00
12763;BME280;6445;52.490;13.378;2023-03-13T03:33:44;-12695.97;;;-146.10;100.00
12763;BME280;6445;52.490;13.378;2023-03-13T03:36:19;-12695.97;;;-146.10;100.00
12763;BME280;6445;52.490;13.378;2023-03-13T03:38:48;-12695.97;;;-146.10;100.00
12763;BME280;6445;52.490;13.378;2023-03-13T03:41:14;-12695.97;;;-146.10;100.00
12763;BME280;6445;52.490;13.378;2023-03-13T03:43:40;-12695.97;;;-146.10;100.00
12763;BME280;6445;52.490;13.378;2023-03-13T03:46:06;-12695.97;;;-146.10;100.00
12763;BME280;6445;52.490;13.378;2023-03-13T03:48:31;-12695.97;;;-146.10;100.00
12763;BME280;6445;52.490;13.378;2023-03-13T03:50:57;-12695.97;;;-146.10;100.00
12763;BME280;6445;52.490;13.378;2023-03-13T03:53:22;-12695.97;;;-146.10;100.00
12763;BME280;6445;52.490;13.378;2023-03-13T03:55:48;-12695.97;;;-146.10;100.00
12763;BME280;6445;52.490;13.378;2023-03-13T03:58:13;-12695.97;;;-146.10;100.00
12763;BME280;6445;52.490;13.378;2023-03-13T04:00:38;-12695.97;;;-146.10;100.00
12763;BME280;6445;52.490;13.378;2023-03-13T04:03:06;-12695.97;;;-146.10;100.00
12763;BME280;6445;52.490;13.378;2023-03-13T04:05:32;-12695.97;;;-146.10;100.00
12763;BME280;6445;52.490;13.378;2023-03-13T04:07:57;-12695.97;;;-146.10;100.00
12763;BME280;6445;52.490;13.378;2023-03-13T04:10:22;-12695.97;;;-146.10;100.00
12763;BME280;6445;52.490;13.378;2023-03-13T04:12:47;-12695.97;;;-146.10;100.00
12763;BME280;6445;52.490;13.378;2023-03-13T04:15:13;-12695.97;;;-146.10;100.00
12763;BME280;6445;52.490;13.378;2023-03-13T04:17:38;-12695.97;;;-146.10;100.00
12763;BME280;6445;52.490;13.378;2023-03-13T04:20:04;-12695.97;;;-146.10;100.00
12763;BME280;6445;52.490;13.378;2023-03-13T04:22:30;-12695.97;;;-146.10;100.00
12763;BME280;6445;52.490;13.378;2023-03-13T04:24:56;-12695.97;;;-146.10;100.00
12763;BME280;6445;52.490;13.378;2023-03-13T04:27:21;-12695.97;;;-146.10;100.00
12763;BME280;6445;52.490;13.378;2023-03-13T04:29:46;-12695.97;;;-146.10;100.00
12763;BME280;6445;52.490;13.378;2023-03-13T04:32:12;-12695.97;;;-146.10;100.00
12763;BME280;6445;52.490;13.378;2023-03-13T04:34:37;-12695.97;;;-146.10;100.00
12763;BME280;6445;52.490;13.378;2023-03-13T04:37:02;-12695.97;;;-146.10;100.00
12763;BME280;6445;52.490;13.378;2023-03-13T04:39:27;-12695.97;;;-146.10;100.00
12763;BME280;6445;52.490;13.378;2023-03-13T04:41:54;-12695.97;;;-146.10;100.00
12763;BME280;6445;52.490;13.378;2023-03-13T04:44:20;-12695.97;;;-146.10;100.00
12763;BME280;6445;52.490;13.378;2023-03-13T04:46:46;-12695.97;;;-146.10;100.00
12763;BME280;6445;52.490;13.378;2023-03-13T04:49:12;-12695.97;;;-146.10;100.00
12763;BME280;6445;52.490;13.378;2023-03-13T04:51:39;-12695.97;;;-146.10;100.00
12763;BME280;6445;52.490;13.378;2023-03-13T04:54:04;-12695.97;;;-146.10;100.00
12763;BME280;6445;52.490;13.378;2023-03-13T04:56:29;-12695.97;;;-146.10;100.00
12763;BME280;6445;52.490;13.378;2023-03-13T04:58:54;-12695.97;;;-146.10;100.00
12763;BME280;6445;52.490;13.378;2023-03-13T05:01:20;-12695.97;;;-146.10;100.00
12763;BME280;6445;52.490;13.378;2023-03-13T05:03:45;-12695.97;;;-146.10;100.00
12763;BME280;6445;52.490;13.378;2023-03-13T05:06:11;-12695.97;;;-146.10;100.00
12763;BME280;6445;52.490;13.378;2023-03-13T05:08:37;-12695.97;;;-146.10;100.00
12763;BME280;6445;52.490;13.378;2023-03-13T05:13:35;-12695.97;;;-146.10;100.00
12763;BME280;6445;52.490;13.378;2023-03-13T05:16:00;-12695.97;;;-146.10;100.00
12763;BME280;6445;52.490;13.378;2023-03-13T05:18:26;-12695.97;;;-146.10;100.00
12763;BME280;6445;52.490;13.378;2023-03-13T05:20:51;-12695.97;;;-146.10;100.00
12763;BME280;6445;52.490;13.378;2023-03-13T05:23:16;-12695.97;;;-146.10;100.00
12763;BME280;6445;52.490;13.378;2023-03-13T05:25:42;-12695.97;;;-146.10;100.00
12763;BME280;6445;52.490;13.378;2023-03-13T05:28:07;-12695.97;;;-146.10;100.00
12763;BME280;6445;52.490;13.378;2023-03-13T05:30:33;-12695.97;;;-146.10;100.00
12763;BME280;6445;52.490;13.378;2023-03-13T05:32:58;-12695.97;;;-146.10;100.00
12763;BME280;6445;52.490;13.378;2023-03-13T05:35:23;-12695.97;;;-146.10;100.00
12763;BME280;6445;52.490;13.378;2023-03-13T05:37:48;-12695.97;;;-146.10;100.00
12763;BME280;6445;52.490;13.378;2023-03-13T05:40:14;-12695.97;;;-146.10;100.00
12763;BME280;6445;52.490;13.378;2023-03-13T05:42:39;-12695.97;;;-146.10;100.00
12763;BME280;6445;52.490;13.378;2023-03-13T05:45:05;-12695.97;;;-146.10;100.00
12763;BME280;6445;52.490;13.378;2023-03-13T05:47:30;-12695.97;;;-146.10;100.00
12763;BME280;6445;52.490;13.378;2023-03-13T05:49:56;-12695.97;;;-146.10;100.00
12763;BME280;6445;52.490;13.378;2023-03-13T05:52:21;-12695.97;;;-146.10;100.00
12763;BME280;6445;52.490;13.378;2023-03-13T05:54:47;-12695.97;;;-146.10;100.00
12763;BME280;6445;52.490;13.378;2023-03-13T05:57:12;-12695.97;;;-146.10;100.00
12763;BME280;6445;52.490;13.378;2023-03-13T05:59:37;-12695.97;;;-146.10;100.00
12763;BME280;6445;52.490;13.378;2023-03-13T06:02:03;-12695.97;;;-146.10;100.00
12763;BME280;6445;52.490;13.378;2023-03-13T06:04:28;-12695.97;;;-146.10;100.00
12763;BME280;6445;52.490;13.378;2023-03-13T06:06:54;-12695.97;;;-146.10;100.00
12763;BME280;6445;52.490;13.378;2023-03-13T06:09:19;-12695.97;;;-146.10;100.00
12763;BME280;6445;52.490;13.378;2023-03-13T06:11:44;-12695.97;;;-146.10;100.00
12763;BME280;6445;52.490;13.378;2023-03-13T06:14:09;-12695.97;;;-146.10;100.00
12763;BME280;6445;52.490;13.378;2023-03-13T06:16:35;-12695.97;;;-146.10;100.00
12763;BME280;6445;52.490;13.378;2023-03-13T06:19:00;-12695.97;;;-146.10;100.00
12763;BME280;6445;52.490;13.378;2023-03-13T06:21:26;-12695.97;;;-146.10;100.00
12763;BME280;6445;52.490;13.378;2023-03-13T06:23:53;-12695.97;;;-146.10;100.00
12763;BME280;6445;52.490;13.378;2023-03-13T06:26:19;-12695.97;;;-146.10;100.00
12763;BME280;6445;52.490;13.378;2023-03-13T06:28:44;-12695.97;;;-146.10;100.00
12763;BME280;6445;52.490;13.378;2023-03-13T06:31:09;-12695.97;;;-146.10;100.00
12763;BME280;6445;52.490;13.378;2023-03-13T06:33:35;-12695.97;;;-146.10;100.00
12763;BME280;6445;52.490;13.378;2023-03-13T06:36:02;-12695.97;;;-146.10;100.00
12763;BME280;6445;52.490;13.378;2023-03-13T06:38:28;-12695.97;;;-146.10;100.00
12763;BME280;6445;52.490;13.378;2023-03-13T06:40:53;-12695.97;;;-146.10;100.00
12763;BME280;6445;52.490;13.378;2023-03-13T06:43:19;-12695.97;;;-146.10;100.00
12763;BME280;6445;52.490;13.378;2023-03-13T06:45:45;-12695.97;;;-146.10;100.00
12763;BME280;6445;52.490;13.378;2023-03-13T06:48:10;-12695.97;;;-146.10;100.00
12763;BME280;6445;52.490;13.378;2023-03-13T06:50:39;-12695.97;;;-146.10;100.00
12763;BME280;6445;52.490;13.378;2023-03-13T06:53:05;-12695.97;;;-146.10;100.00
12763;BME280;6445;52.490;13.378;2023-03-13T06:55:30;-12695.97;;;-146.10;100.00
12763;BME280;6445;52.490;13.378;2023-03-13T06:57:56;-12695.97;;;-146.10;100.00
12763;BME280;6445;52.490;13.378;2023-03-13T07:00:22;-12695.97;;;-146.10;100.00
12763;BME280;6445;52.490;13.378;2023-03-13T07:02:47;-12695.97;;;-146.10;100.00
12763;BME280;6445;52.490;13.378;2023-03-13T07:05:13;-12695.97;;;-146.10;100.00
12763;BME280;6445;52.490;13.378;2023-03-13T07:07:39;-12695.97;;;-146.10;100.00
12763;BME280;6445;52.490;13.378;2023-03-13T07:10:06;-12695.97;;;-146.10;100.00
12763;BME280;6445;52.490;13.378;2023-03-13T07:12:33;-12695.97;;;-146.10;100.00
12763;BME280;6445;52.490;13.378;2023-03-13T07:14:58;-12695.97;;;-146.10;100.00
12763;BME280;6445;52.490;13.378;2023-03-13T07:17:24;-12695.97;;;-146.10;100.00
12763;BME280;6445;52.490;13.378;2023-03-13T07:19:49;-12695.97;;;-146.10;100.00
12763;BME280;6445;52.490;13.378;2023-03-13T07:22:14;-12695.97;;;-146.10;100.00
12763;BME280;6445;52.490;13.378;2023-03-13T07:24:39;-12695.97;;;-146.10;100.00
12763;BME280;6445;52.490;13.378;2023-03-13T07:27:05;-12695.97;;;-146.10;100.00
12763;BME280;6445;52.490;13.378;2023-03-13T07:29:30;-12695.97;;;-146.10;100.00
12763;BME280;6445;52.490;13.378;2023-03-13T07:31:55;-12695.97;;;-146.10;100.00
12763;BME280;6445;52.490;13.378;2023-03-13T07:34:21;-12695.97;;;-146.10;100.00
12763;BME280;6445;52.490;13.378;2023-03-13T07:36:46;-12695.97;;;-146.10;100.00
12763;BME280;6445;52.490;13.378;2023-03-13T07:39:11;-12695.97;;;-146.10;100.00
12763;BME280;6445;52.490;13.378;2023-03-13T07:41:37;-12695.97;;;-146.10;100.00
12763;BME280;6445;52.490;13.378;2023-03-13T07:44:03;-12695.97;;;-146.10;100.00
12763;BME280;6445;52.490;13.378;2023-03-13T07:46:28;-12695.97;;;-146.10;100.00
12763;BME280;6445;52.490;13.378;2023-03-13T07:48:53;-12695.97;;;-146.10;100.00
12763;BME280;6445;52.490;13.378;2023-03-13T07:51:23;-12695.97;;;-146.10;100.00
12763;BME280;6445;52.490;13.378;2023-03-13T07:53:49;-12695.97;;;-146.10;100.00
12763;BME280;6445;52.490;13.378;2023-03-13T07:56:18;-12695.97;;;-146.10;100.00
12763;BME280;6445;52.490;13.378;2023-03-13T07:58:44;-12695.97;;;-146.10;100.00
12763;BME280;6445;52.490;13.378;2023-03-13T08:01:21;-12695.97;;;-146.10;100.00
12763;BME280;6445;52.490;13.378;2023-03-13T08:03:47;-12695.97;;;-146.10;100.00
12763;BME280;6445;52.490;13.378;2023-03-13T08:06:16;-12695.97;;;-146.10;100.00
12763;BME280;6445;52.490;13.378;2023-03-13T08:08:42;-12695.97;;;-146.10;100.00
12763;BME280;6445;52.490;13.378;2023-03-13T08:11:16;-12695.97;;;-146.10;100.00
12763;BME280;6445;52.490;13.378;2023-03-13T08:13:42;-12695.97;;;-146.10;100.00
12763;BME280;6445;52.490;13.378;2023-03-13T08:16:19;-12695.97;;;-146.10;100.00
12763;BME280;6445;52.490;13.378;2023-03-13T08:18:46;-12695.97;;;-146.10;100.00
12763;BME280;6445;52.490;13.378;2023-03-13T08:21:17;-12695.97;;;-146.10;100.00
12763;BME280;6445;52.490;13.378;2023-03-13T08:23:44;-12695.97;;;-146.10;100.00
12763;BME280;6445;52.490;13.378;2023-03-13T08:26:15;-12695.97;;;-146.10;100.00
12763;BME280;6445;52.490;13.378;2023-03-13T08:28:41;-12695.97;;;-146.10;100.00
12763;BME280;6445;52.490;13.378;2023-03-13T08:31:18;-12695.97;;;-146.10;100.00
12763;BME280;6445;52.490;13.378;2023-03-13T08:33:44;-12695.97;;;-146.10;100.00
12763;BME280;6445;52.490;13.378;2023-03-13T08:36:17;-12695.97;;;-146.10;100.00
12763;BME280;6445;52.490;13.378;2023-03-13T08:38:43;-12695.97;;;-146.10;100.00
12763;BME280;6445;52.490;13.378;2023-03-13T08:41:10;-12695.97;;;-146.10;100.00
12763;BME280;6445;52.490;13.378;2023-03-13T08:43:36;-12695.97;;;-146.10;100.00
12763;BME280;6445;52.490;13.378;2023-03-13T08:46:01;-12695.97;;;-146.10;100.00
12763;BME280;6445;52.490;13.378;2023-03-13T08:48:27;-12695.97;;;-146.10;100.00
12763;BME280;6445;52.490;13.378;2023-03-13T08:51:04;-12695.97;;;-146.10;100.00
12763;BME280;6445;52.490;13.378;2023-03-13T08:53:30;-12695.97;;;-146.10;100.00
12763;BME280;6445;52.490;13.378;2023-03-13T08:55:55;-12695.97;;;-146.10;100.00
12763;BME280;6445;52.490;13.378;2023-03-13T08:58:20;-12695.97;;;-146.10;100.00
12763;BME280;6445;52.490;13.378;2023-03-13T09:00:46;-12695.97;;;-146.10;100.00
12763;BME280;6445;52.490;13.378;2023-03-13T09:03:11;-12695.97;;;-146.10;100.00
12763;BME280;6445;52.490;13.378;2023-03-13T09:05:37;-12695.97;;;-146.10;100.00
12763;BME280;6445;52.490;13.378;2023-03-13T09:08:03;-12695.97;;;-146.10;100.00
12763;BME280;6445;52.490;13.378;2023-03-13T09:10:28;-12695.97;;;-146.10;100.00
12763;BME280;6445;52.490;13.378;2023-03-13T09:12:53;-12695.97;;;-146.10;100.00
12763;BME280;6445;52.490;13.378;2023-03-13T09:15:19;-12695.97;;;-146.10;100.00
12763;BME280;6445;52.490;13.378;2023-03-13T09:17:44;-12695.97;;;-146.10;100.00
12763;BME280;6445;52.490;13.378;2023-03-13T09:20:10;-12695.97;;;-146.10;100.00
12763;BME280;6445;52.490;13.378;2023-03-13T09:22:35;-12695.97;;;-146.10;100.00
12763;BME280;6445;52.490;13.378;2023-03-13T09:25:00;-12695.97;;;-146.10;100.00
12763;BME280;6445;52.490;13.378;2023-03-13T09:27:25;-12695.97;;;-146.10;100.00
12763;BME280;6445;52.490;13.378;2023-03-13T09:29:52;-12695.97;;;-146.10;100.00
12763;BME280;6445;52.490;13.378;2023-03-13T09:32:17;-12695.97;;;-146.10;100.00
12763;BME280;6445;52.490;13.378;2023-03-13T09:34:44;-12695.97;;;-146.10;100.00
12763;BME280;6445;52.490;13.378;2023-03-13T09:37:09;-12695.97;;;-146.10;100.00
12763;BME280;6445;52.490;13.378;2023-03-13T09:39:35;-12695.97;;;-146.10;100.00
12763;BME280;6445;52.490;13.378;2023-03-13T09:42:19;-12695.97;;;-146.10;100.00
12763;BME280;6445;52.490;13.378;2023-03-13T09:44:54;-12695.97;;;-146.10;100.00
12763;BME280;6445;52.490;13.378;2023-03-13T09:47:45;-12695.97;;;-146.10;100.00
12763;BME280;6445;52.490;13.378;2023-03-13T09:50:55;-12695.97;;;-146.10;100.00
12763;BME280;6445;52.490;13.378;2023-03-13T09:53:05;-12695.97;;;-146.10;100.00
12763;BME280;6445;52.490;13.378;2023-03-13T09:55:33;-12695.97;;;-146.10;100.00
12763;BME280;6445;52.490;13.378;2023-03-13T09:58:14;-12695.97;;;-146.10;100.00
12763;BME280;6445;52.490;13.378;2023-03-13T10:00:53;-12695.97;;;-146.10;100.00
12763;BME280;6445;52.490;13.378;2023-03-13T10:03:34;-12695.97;;;-146.10;100.00
12763;BME280;6445;52.490;13.378;2023-03-13T10:06:14;-12695.97;;;-146.10;100.00
12763;BME280;6445;52.490;13.378;2023-03-13T10:08:42;-12695.97;;;-146.10;100.00
12763;BME280;6445;52.490;13.378;2023-03-13T10:11:23;-12695.97;;;-146.10;100.00
12763;BME280;6445;52.490;13.378;2023-03-13T10:14:06;-12695.97;;;-146.10;100.00
12763;BME280;6445;52.490;13.378;2023-03-13T10:16:49;-12695.97;;;-146.10;100.00
12763;BME280;6445;52.490;13.378;2023-03-13T10:19:25;-12695.97;;;-146.10;100.00
12763;BME280;6445;52.490;13.378;2023-03-13T10:21:52;-12695.97;;;-146.10;100.00
12763;BME280;6445;52.490;13.378;2023-03-13T10:24:31;-12695.97;;;-146.10;100.00
12763;BME280;6445;52.490;13.378;2023-03-13T10:26:57;-12695.97;;;-146.10;100.00
12763;BME280;6445;52.490;13.378;2023-03-13T10:29:28;-12695.97;;;-146.10;100.00
12763;BME280;6445;52.490;13.378;2023-03-13T10:31:59;-12695.97;;;-146.10;100.00
12763;BME280;6445;52.490;13.378;2023-03-13T10:34:27;-12695.97;;;-146.10;100.00
12763;BME280;6445;52.490;13.378;2023-03-13T10:36:56;-12695.97;;;-146.10;100.00
12763;BME280;6445;52.490;13.378;2023-03-13T10:39:23;-12695.97;;;-146.10;100.00
12763;BME280;6445;52.490;13.378;2023-03-13T10:41:50;-12695.97;;;-146.10;100.00
12763;BME280;6445;52.490;13.378;2023-03-13T10:44:22;-12695.97;;;-146.10;100.00
12763;BME280;6445;52.490;13.378;2023-03-13T10:46:49;-12695.97;;;-146.10;100.00
12763;BME280;6445;52.490;13.378;2023-03-13T10:49:23;-12695.97;;;-146.10;100.00
12763;BME280;6445;52.490;13.378;2023-03-13T10:51:52;-12695.97;;;-146.10;100.00
12763;BME280;6445;52.490;13.378;2023-03-13T10:54:23;-12695.97;;;-146.10;100.00
12763;BME280;6445;52.490;13.378;2023-03-13T10:56:49;-12695.97;;;-146.10;100.00
12763;BME280;6445;52.490;13.378;2023-03-13T10:59:19;-12695.97;;;-146.10;100.00
12763;BME280;6445;52.490;13.378;2023-03-13T11:01:46;-12695.97;;;-146.10;100.00
12763;BME280;6445;52.490;13.378;2023-03-13T11:04:38;-12695.97;;;-146.10;100.00
12763;BME280;6445;52.490;13.378;2023-03-13T11:07:09;-12695.97;;;-146.10;100.00
12763;BME280;6445;52.490;13.378;2023-03-13T11:09:38;-12695.97;;;-146.10;100.00
12763;BME280;6445;52.490;13.378;2023-03-13T11:12:18;-12695.97;;;-146.10;100.00
12763;BME280;6445;52.490;13.378;2023-03-13T11:14:44;-12695.97;;;-146.10;100.00
12763;BME280;6445;52.490;13.378;2023-03-13T11:17:23;-12694.50;;;-146.10;100.00
12763;BME280;6445;52.490;13.378;2023-03-13T11:20:04;-11435.06;;;-146.10;100.00
12763;BME280;6445;52.490;13.378;2023-03-13T11:25:30;-7906.50;;;-146.10;100.00
12763;BME280;6445;52.490;13.378;2023-03-13T11:31:15;-2530.63;;;-146.10;100.00
12763;BME280;6445;52.490;13.378;2023-03-13T11:33:56;1004.19;;;-146.10;100.00
12763;BME280;6445;52.490;13.378;2023-03-13T11:39:53;6439.97;;;-146.10;100.00
12763;BME280;6445;52.490;13.378;2023-03-13T11:42:08;7943.03;;;-146.10;100.00
12763;BME280;6445;52.490;13.378;2023-03-13T11:50:43;15508.72;;;-146.10;100.00
12763;BME280;6445;52.490;13.378;2023-03-13T12:01:27;14252.38;;;-146.10;100.00
12763;BME280;6445;52.490;13.378;2023-03-13T12:03:57;14159.25;;;-146.10;100.00
12763;BME280;6445;52.490;13.378;2023-03-13T12:06:30;15932.91;;;-146.10;100.00
12763;BME280;6445;52.490;13.378;2023-03-13T12:09:05;16644.56;;;-146.10;100.00
12763;BME280;6445;52.490;13.378;2023-03-13T12:11:43;17975.06;;;-146.10;100.00
12763;BME280;6445;52.490;13.378;2023-03-13T12:14:17;23734.63;;;-146.10;100.00
12763;BME280;6445;52.490;13.378;2023-03-13T12:16:56;41758.72;;;-146.10;100.00
12763;BME280;6445;52.490;13.378;2023-03-13T12:19:38;54483.34;;;-146.10;100.00
12763;BME280;6445;52.490;13.378;2023-03-13T12:22:15;68257.25;;;-146.10;100.00
12763;BME280;6445;52.490;13.378;2023-03-13T12:24:50;67542.19;;;-146.10;100.00
12763;BME280;6445;52.490;13.378;2023-03-13T12:27:25;79447.25;;;-146.10;100.00
12763;BME280;6445;52.490;13.378;2023-03-13T12:35:35;75016.19;;;-146.10;100.00
12763;BME280;6445;52.490;13.378;2023-03-13T12:38:12;73376.66;;;-146.10;100.00
12763;BME280;6445;52.490;13.378;2023-03-13T12:40:56;83385.19;;;-146.10;100.00
12763;BME280;6445;52.490;13.378;2023-03-13T12:43:31;88316.03;;;-146.10;100.00
12763;BME280;6445;52.490;13.378;2023-03-13T12:48:26;87252.28;;;-146.10;100.00
12763;BME280;6445;52.490;13.378;2023-03-13T12:51:06;87603.47;;;-146.10;100.00
12763;BME280;6445;52.490;13.378;2023-03-13T12:59:01;70113.69;;;-146.10;96.89
12763;BME280;6445;52.490;13.378;2023-03-13T13:01:34;71772.00;;;-146.10;97.04
12763;BME280;6445;52.490;13.378;2023-03-13T13:04:06;60621.47;;;-146.10;88.81
12763;BME280;6445;52.490;13.378;2023-03-13T13:06:58;67222.88;;;-146.10;94.60
12763;BME280;6445;52.490;13.378;2023-03-13T13:09:31;69195.41;;;-146.10;95.41